createdAt,value
2023-01-04T00:00:17.283Z,7.60
2023-01-04T00:03:05.659Z,8.88
2023-01-04T00:05:54.934Z,8.55
2023-01-04T00:08:43.322Z,7.47
2023-01-04T00:11:31.238Z,7.53
2023-01-04T00:14:22.159Z,7.78
2023-01-04T00:17:11.401Z,7.60
2023-01-04T00:19:59.267Z,7.32
2023-01-04T00:22:48.434Z,7.72
2023-01-04T00:25:38.933Z,7.03
2023-01-04T00:28:26.553Z,7.82
2023-01-04T00:31:16.338Z,7.25
2023-01-04T00:34:07.022Z,6.93
2023-01-04T00:36:56.854Z,7.20
2023-01-04T00:39:44.899Z,6.70
2023-01-04T00:42:32.869Z,7.40
2023-01-04T00:45:20.658Z,7.28
2023-01-04T00:48:08.658Z,7.53
2023-01-04T00:50:58.030Z,7.78
2023-01-04T00:53:45.635Z,7.80
2023-01-04T00:56:34.739Z,7.30
2023-01-04T00:59:23.536Z,7.22
2023-01-04T01:02:12.066Z,7.13
2023-01-04T01:05:01.339Z,6.80
2023-01-04T01:07:51.432Z,6.68
2023-01-04T01:10:39.397Z,7.40
2023-01-04T01:13:27.298Z,7.35
2023-01-04T01:16:27.325Z,7.30
2023-01-04T01:19:26.426Z,6.93
2023-01-04T01:22:16.424Z,7.30
2023-01-04T01:25:05.960Z,7.10
2023-01-04T01:27:53.651Z,7.13
2023-01-04T01:30:42.629Z,6.93
2023-01-04T01:33:30.393Z,7.18
2023-01-04T01:36:21.018Z,7.30
2023-01-04T01:39:08.965Z,6.28
2023-01-04T01:41:59.486Z,10.55
2023-01-04T01:45:01.540Z,7.72
2023-01-04T01:47:52.555Z,6.97
2023-01-04T01:50:44.930Z,8.82
2023-01-04T01:53:38.652Z,7.72
2023-01-04T01:56:30.381Z,7.18
2023-01-04T01:59:20.662Z,7.10
2023-01-04T02:02:11.734Z,8.60
2023-01-04T02:05:05.772Z,7.97
2023-01-04T02:07:54.151Z,10.45
2023-01-04T02:10:41.884Z,11.20
2023-01-04T02:13:46.713Z,10.98
2023-01-04T02:17:01.139Z,11.73
2023-01-04T02:20:11.117Z,8.43
2023-01-04T02:23:28.754Z,9.32
2023-01-04T02:27:04.873Z,12.10
2023-01-04T02:30:38.440Z,13.05
2023-01-04T02:33:49.010Z,14.13
2023-01-04T02:36:44.398Z,14.25
2023-01-04T02:39:42.668Z,14.43
2023-01-04T02:42:58.280Z,15.25
2023-01-04T02:45:53.561Z,14.05
2023-01-04T02:49:02.895Z,14.65
2023-01-04T02:51:50.656Z,14.65
2023-01-04T02:54:39.186Z,13.85
2023-01-04T02:57:37.570Z,12.15
2023-01-04T03:01:02.538Z,12.57
2023-01-04T03:04:23.759Z,12.25
2023-01-04T03:07:18.522Z,13.10
2023-01-04T03:10:12.097Z,13.70
2023-01-04T03:13:06.204Z,14.82
2023-01-04T03:15:58.540Z,13.38
2023-01-04T03:18:49.235Z,12.77
2023-01-04T03:21:44.958Z,12.88
2023-01-04T03:24:52.230Z,13.32
2023-01-04T03:27:59.401Z,12.40
2023-01-04T03:31:14.233Z,12.55
2023-01-04T03:34:20.086Z,12.98
2023-01-04T03:37:17.393Z,12.88
2023-01-04T03:40:37.626Z,12.60
2023-01-04T03:43:52.688Z,12.60
2023-01-04T03:47:05.519Z,12.43
2023-01-04T03:50:02.128Z,12.73
2023-01-04T03:52:53.437Z,11.57
2023-01-04T03:55:43.673Z,11.88
2023-01-04T03:58:33.564Z,12.15
2023-01-04T04:01:25.284Z,10.93
2023-01-04T04:04:31.147Z,11.38
2023-01-04T04:07:36.697Z,11.68
2023-01-04T04:10:25.992Z,11.80
2023-01-04T04:13:14.144Z,10.57
2023-01-04T04:16:01.879Z,13.98
2023-01-04T04:18:50.056Z,11.88
2023-01-04T04:21:37.884Z,11.77
2023-01-04T04:24:27.734Z,11.82
2023-01-04T04:27:19.918Z,11.48
2023-01-04T04:30:08.947Z,11.23
2023-01-04T04:32:57.229Z,12.80
2023-01-04T04:35:45.399Z,12.25
2023-01-04T04:38:33.277Z,11.63
2023-01-04T04:41:38.551Z,11.38
2023-01-04T04:44:27.581Z,11.50
2023-01-04T04:47:15.650Z,11.35
2023-01-04T04:50:03.815Z,11.07
2023-01-04T04:52:56.301Z,11.55
2023-01-04T04:55:44.543Z,11.43
2023-01-04T04:58:35.286Z,12.10
2023-01-04T05:01:26.769Z,12.68
2023-01-04T05:04:16.943Z,11.82
2023-01-04T05:07:10.672Z,11.98
2023-01-04T05:10:00.106Z,12.25
2023-01-04T05:13:03.863Z,12.57
2023-01-04T05:15:55.272Z,12.25
2023-01-04T05:18:44.238Z,11.07
2023-01-04T05:21:32.133Z,11.48
2023-01-04T05:24:26.257Z,11.63
2023-01-04T05:27:14.413Z,12.07
2023-01-04T05:30:19.837Z,10.93
2023-01-04T05:33:08.074Z,11.48
2023-01-04T05:35:58.840Z,11.10
2023-01-04T05:38:48.753Z,11.30
2023-01-04T05:42:13.237Z,10.65
2023-01-04T05:45:07.361Z,10.15
2023-01-04T05:47:55.853Z,11.73
2023-01-04T05:50:45.795Z,11.23
2023-01-04T05:53:34.960Z,11.32
2023-01-04T05:56:25.210Z,11.07
2023-01-04T05:59:13.576Z,10.82
2023-01-04T06:02:01.600Z,10.82
2023-01-04T06:04:59.138Z,10.32
2023-01-04T06:07:48.863Z,10.65
2023-01-04T06:10:40.409Z,9.13
2023-01-04T06:13:28.195Z,9.32
2023-01-04T06:16:18.169Z,9.32
2023-01-04T06:19:07.729Z,9.23
2023-01-04T06:21:56.200Z,9.55
2023-01-04T06:24:44.429Z,9.05
2023-01-04T06:27:35.204Z,9.45
2023-01-04T06:30:23.111Z,9.88
2023-01-04T06:33:13.256Z,9.48
2023-01-04T06:36:01.476Z,10.10
2023-01-04T06:38:49.556Z,9.55
2023-01-04T06:41:38.955Z,10.40
2023-01-04T06:44:28.126Z,9.13
2023-01-04T06:47:17.672Z,10.10
2023-01-04T06:50:07.198Z,9.95
2023-01-04T06:52:54.929Z,8.93
2023-01-04T06:55:45.757Z,8.73
2023-01-04T06:58:33.518Z,8.40
2023-01-04T07:01:22.598Z,9.48
2023-01-04T07:04:11.639Z,9.05
2023-01-04T07:06:59.565Z,8.75
2023-01-04T07:09:49.169Z,9.00
2023-01-04T07:12:37.379Z,9.38
2023-01-04T07:15:39.317Z,9.27
2023-01-04T07:18:29.291Z,8.80
2023-01-04T07:21:17.244Z,8.82
2023-01-04T07:24:05.495Z,8.43
2023-01-04T07:26:53.002Z,8.90
2023-01-04T07:29:43.809Z,8.27
2023-01-04T07:32:31.484Z,8.57
2023-01-04T07:35:21.268Z,8.57
2023-01-04T07:38:09.190Z,8.43
2023-01-04T07:41:00.381Z,8.98
2023-01-04T07:43:48.251Z,9.30
2023-01-04T07:46:37.534Z,9.20
2023-01-04T07:49:28.574Z,9.75
2023-01-04T07:52:17.656Z,7.95
2023-01-04T07:55:05.612Z,8.68
2023-01-04T07:57:55.246Z,8.80
2023-01-04T08:00:43.236Z,9.48
2023-01-04T08:03:31.163Z,8.70
2023-01-04T08:06:21.130Z,9.48
2023-01-04T08:09:13.235Z,9.02
2023-01-04T08:12:01.574Z,9.05
2023-01-04T08:14:49.681Z,9.98
2023-01-04T08:17:37.555Z,7.97
2023-01-04T08:20:25.337Z,8.38
2023-01-04T08:23:13.367Z,9.02
2023-01-04T08:26:06.438Z,9.18
2023-01-04T08:28:54.793Z,9.32
2023-01-04T08:31:42.861Z,8.90
2023-01-04T08:34:32.267Z,8.85
2023-01-04T08:37:19.960Z,9.43
2023-01-04T08:40:11.616Z,8.60
2023-01-04T08:43:00.841Z,8.40
2023-01-04T08:45:48.635Z,8.65
2023-01-04T08:48:36.762Z,8.40
2023-01-04T08:51:24.688Z,8.27
2023-01-04T08:54:13.247Z,8.40
2023-01-04T08:57:01.365Z,9.43
2023-01-04T08:59:50.789Z,8.48
2023-01-04T09:02:39.025Z,8.00
2023-01-04T09:05:33.164Z,8.10
2023-01-04T09:08:27.496Z,6.95
2023-01-04T09:11:17.719Z,6.57
2023-01-04T09:14:09.380Z,6.82
2023-01-04T09:16:58.790Z,5.38
2023-01-04T09:19:46.506Z,4.80
2023-01-04T09:22:34.523Z,4.30
2023-01-04T09:25:22.362Z,4.82
2023-01-04T09:28:12.773Z,4.20
2023-01-04T09:31:05.250Z,4.80
2023-01-04T09:37:02.973Z,3.58
2023-01-04T09:39:50.983Z,3.30
2023-01-04T09:42:47.472Z,2.95
2023-01-04T09:45:38.292Z,3.10
2023-01-04T09:48:30.282Z,2.63
2023-01-04T09:51:23.162Z,2.88
2023-01-04T09:54:17.087Z,3.17
2023-01-04T09:57:05.616Z,2.72
2023-01-04T09:59:58.417Z,2.65
2023-01-04T10:05:36.479Z,2.30
2023-01-04T10:08:25.947Z,2.72
2023-01-04T10:11:27.605Z,4.35
2023-01-04T10:14:36.221Z,2.67
2023-01-04T10:18:43.441Z,3.13
2023-01-04T10:21:29.516Z,2.85
2023-01-04T10:24:39.974Z,3.20
2023-01-04T10:27:42.352Z,2.63
2023-01-04T10:30:41.117Z,3.05
2023-01-04T10:33:38.395Z,2.30
2023-01-04T10:36:31.516Z,2.58
2023-01-04T10:39:32.331Z,1.67
2023-01-04T10:42:36.732Z,1.73
2023-01-04T10:45:35.814Z,1.80
2023-01-04T10:48:32.150Z,1.67
2023-01-04T10:51:29.248Z,1.42
2023-01-04T10:54:25.463Z,2.20
2023-01-04T10:57:19.136Z,1.90
2023-01-04T11:00:12.834Z,1.90
2023-01-04T11:03:09.052Z,1.30
2023-01-04T11:06:03.660Z,1.77
2023-01-04T11:08:56.932Z,1.58
2023-01-04T11:11:46.645Z,1.50
2023-01-04T11:14:37.517Z,1.52
2023-01-04T11:17:27.294Z,1.67
2023-01-04T11:20:15.241Z,1.27
2023-01-04T11:23:06.704Z,1.40
2023-01-04T11:25:59.917Z,1.10
2023-01-04T11:28:52.690Z,1.00
2023-01-04T11:31:50.049Z,1.10
2023-01-04T11:34:49.042Z,1.30
2023-01-04T11:37:38.365Z,1.30
2023-01-04T11:40:28.119Z,1.10
2023-01-04T11:43:20.939Z,0.98
2023-01-04T11:46:24.305Z,1.10
2023-01-04T11:49:21.337Z,1.23
2023-01-04T11:52:31.085Z,1.20
2023-01-04T11:55:26.511Z,1.10
2023-01-04T11:58:16.464Z,1.40
2023-01-04T12:01:06.217Z,1.20
2023-01-04T12:03:54.181Z,1.40
2023-01-04T12:06:48.880Z,1.30
2023-01-04T12:09:38.074Z,1.35
2023-01-04T12:12:30.555Z,1.30
2023-01-04T12:15:26.456Z,1.40
2023-01-04T12:18:21.077Z,1.23
2023-01-04T12:21:16.503Z,1.30
2023-01-04T12:24:08.488Z,1.05
2023-01-04T12:26:58.132Z,1.35
2023-01-04T12:29:55.469Z,1.20
2023-01-04T12:32:47.696Z,1.20
2023-01-04T12:36:04.058Z,3.90
2023-01-04T12:39:39.014Z,2.88
2023-01-04T12:42:28.384Z,2.25
2023-01-04T12:45:19.628Z,1.92
2023-01-04T12:48:57.249Z,2.08
2023-01-04T12:51:58.278Z,1.20
2023-01-04T12:54:55.860Z,1.50
2023-01-04T12:58:07.847Z,1.20
2023-01-04T13:01:24.691Z,1.40
2023-01-04T13:04:40.866Z,1.40
2023-01-04T13:07:32.527Z,1.08
2023-01-04T13:10:29.153Z,1.27
2023-01-04T13:13:32.360Z,1.10
2023-01-04T13:16:28.708Z,1.13
2023-01-04T13:19:22.116Z,1.52
2023-01-04T13:22:20.943Z,1.30
2023-01-04T13:26:04.050Z,1.10
2023-01-04T13:29:07.766Z,1.10
2023-01-04T13:32:00.121Z,1.20
2023-01-04T13:34:56.533Z,1.30
2023-01-04T13:37:46.136Z,1.15
2023-01-04T13:40:37.468Z,1.20
2023-01-04T13:43:56.289Z,1.13
2023-01-04T13:46:45.605Z,1.50
2023-01-04T13:49:33.564Z,1.52
2023-01-04T13:52:50.514Z,1.40
2023-01-04T13:55:34.769Z,1.13
2023-01-04T13:58:48.071Z,1.23
2023-01-04T14:01:41.315Z,1.30
2023-01-04T14:04:35.945Z,1.42
2023-01-04T14:07:24.669Z,1.50
2023-01-04T14:10:19.900Z,2.22
2023-01-04T14:13:09.953Z,1.67
2023-01-04T14:16:13.076Z,1.50
2023-01-04T14:22:41.417Z,1.40
2023-01-04T14:25:48.637Z,1.10
2023-01-04T14:28:49.678Z,1.02
2023-01-04T14:31:38.775Z,1.15
2023-01-04T14:34:26.406Z,1.30
2023-01-04T14:37:14.723Z,2.53
2023-01-04T14:40:14.444Z,3.50
2023-01-04T14:43:02.418Z,4.65
2023-01-04T14:45:50.469Z,6.93
2023-01-04T14:48:38.853Z,6.78
2023-01-04T14:51:33.884Z,4.68
2023-01-04T14:54:25.705Z,7.28
2023-01-04T14:57:33.044Z,7.63
2023-01-04T15:00:21.546Z,8.43
2023-01-04T15:03:09.621Z,5.78
2023-01-04T15:05:58.450Z,5.88
2023-01-04T15:08:46.637Z,5.00
2023-01-04T15:11:34.404Z,4.07
2023-01-04T15:14:24.316Z,2.97
2023-01-04T15:17:12.187Z,2.63
2023-01-04T15:20:00.197Z,5.68
2023-01-04T15:22:48.097Z,7.35
2023-01-04T15:25:36.563Z,5.50
2023-01-04T15:28:26.394Z,8.93
2023-01-04T15:31:17.192Z,7.50
2023-01-04T15:34:09.405Z,3.28
2023-01-04T15:36:57.287Z,1.98
2023-01-04T15:39:46.399Z,4.13
2023-01-04T15:42:51.678Z,2.92
2023-01-04T15:45:40.645Z,3.20
2023-01-04T15:48:29.683Z,2.53
2023-01-04T15:51:17.824Z,2.30
2023-01-04T15:54:05.784Z,2.50
2023-01-04T15:56:53.522Z,1.77
2023-01-04T15:59:41.395Z,1.77
2023-01-04T16:02:29.612Z,1.88
2023-01-04T16:05:20.828Z,1.65
2023-01-04T16:08:09.379Z,2.03
2023-01-04T16:10:57.348Z,1.95
2023-01-04T16:13:47.336Z,1.70
2023-01-04T16:16:35.245Z,1.42
2023-01-04T16:19:23.119Z,1.95
2023-01-04T16:22:13.815Z,1.50
2023-01-04T16:25:10.739Z,1.48
2023-01-04T16:27:59.493Z,1.60
2023-01-04T16:30:49.955Z,1.70
2023-01-04T16:33:38.209Z,1.70
2023-01-04T16:36:27.023Z,1.70
2023-01-04T16:39:17.049Z,1.60
2023-01-04T16:42:10.582Z,1.20
2023-01-04T16:44:58.999Z,1.30
2023-01-04T16:47:49.068Z,1.50
2023-01-04T16:50:40.977Z,1.50
2023-01-04T16:53:29.126Z,2.00
2023-01-04T16:56:21.162Z,1.60
2023-01-04T16:59:10.192Z,2.67
2023-01-04T17:01:58.468Z,3.45
2023-01-04T17:04:49.694Z,3.08
2023-01-04T17:07:37.704Z,2.80
2023-01-04T17:10:29.485Z,3.05
2023-01-04T17:13:18.976Z,5.88
2023-01-04T17:16:07.576Z,5.07
2023-01-04T17:18:56.783Z,3.08
2023-01-04T17:21:44.953Z,3.20
2023-01-04T17:24:32.937Z,3.05
2023-01-04T17:30:42.986Z,8.48
2023-01-04T17:33:30.825Z,9.32
2023-01-04T17:36:20.458Z,17.60
2023-01-04T17:39:08.602Z,6.30
2023-01-04T17:41:56.501Z,3.50
2023-01-04T17:44:46.077Z,2.65
2023-01-04T17:47:36.839Z,3.58
2023-01-04T17:50:25.931Z,2.30
2023-01-04T17:53:13.684Z,2.40
2023-01-04T17:56:03.921Z,1.70
2023-01-04T17:58:51.981Z,1.80
2023-01-04T18:01:39.896Z,1.90
2023-01-04T18:04:29.134Z,2.10
2023-01-04T18:07:17.774Z,1.60
2023-01-04T18:10:06.404Z,1.42
2023-01-04T18:12:54.237Z,1.60
2023-01-04T18:15:54.997Z,1.30
2023-01-04T18:18:50.173Z,2.15
2023-01-04T18:21:39.448Z,1.30
2023-01-04T18:24:36.781Z,1.20
2023-01-04T18:27:26.746Z,1.67
2023-01-04T18:30:15.481Z,2.58
2023-01-04T18:33:09.810Z,1.88
2023-01-04T18:36:02.846Z,2.83
2023-01-04T18:38:55.760Z,2.40
2023-01-04T18:41:48.316Z,1.95
2023-01-04T18:44:37.850Z,1.90
2023-01-04T18:53:47.250Z,1.25
2023-01-04T18:56:38.811Z,1.40
2023-01-04T18:59:34.949Z,1.50
2023-01-04T19:02:22.812Z,1.60
2023-01-04T19:05:11.572Z,1.30
2023-01-04T19:07:59.487Z,1.30
2023-01-04T19:10:50.275Z,1.25
2023-01-04T19:13:47.497Z,1.50
2023-01-04T19:16:53.826Z,1.42
2023-01-04T19:19:43.070Z,1.40
2023-01-04T19:22:30.792Z,1.35
2023-01-04T19:25:23.180Z,1.52
2023-01-04T19:28:14.456Z,36.15
2023-01-04T19:31:09.288Z,6.25
2023-01-04T19:33:57.442Z,5.40
2023-01-04T19:36:45.142Z,2.50
2023-01-04T19:39:33.128Z,4.30
2023-01-04T19:42:21.250Z,2.60
2023-01-04T19:45:10.813Z,2.63
2023-01-04T19:48:00.451Z,2.47
2023-01-04T19:50:48.393Z,1.70
2023-01-04T19:53:36.818Z,1.70
2023-01-04T19:56:24.905Z,1.52
2023-01-04T19:59:12.739Z,1.60
2023-01-04T20:02:02.044Z,1.27
2023-01-04T20:08:08.331Z,1.20
2023-01-04T20:14:42.124Z,1.48
2023-01-04T20:17:31.438Z,1.38
2023-01-04T20:20:22.050Z,1.70
2023-01-04T20:23:15.130Z,1.27
2023-01-04T20:29:22.452Z,1.10
2023-01-04T20:32:17.243Z,1.55
2023-01-04T20:35:08.723Z,1.20
2023-01-04T20:37:58.182Z,0.98
2023-01-04T20:40:46.207Z,1.00
2023-01-04T20:43:33.416Z,1.10
2023-01-04T20:46:29.647Z,1.10
2023-01-04T20:49:18.459Z,1.10
2023-01-04T20:52:08.452Z,0.98
2023-01-04T20:58:05.226Z,1.00
2023-01-04T21:00:54.855Z,1.00
2023-01-04T21:03:43.532Z,0.90
2023-01-04T21:06:37.181Z,1.10
2023-01-04T21:09:34.100Z,0.98
2023-01-04T21:15:50.332Z,1.00
2023-01-04T21:18:38.594Z,0.90
2023-01-04T21:21:26.383Z,1.15
2023-01-04T21:24:14.300Z,1.73
2023-01-04T21:27:02.513Z,1.85
2023-01-04T21:29:54.540Z,1.50
2023-01-04T21:32:42.424Z,1.70
2023-01-04T21:35:35.232Z,1.67
2023-01-04T21:38:28.759Z,1.70
2023-01-04T21:41:33.993Z,1.90
2023-01-04T21:44:25.352Z,2.92
2023-01-04T21:47:14.763Z,2.22
2023-01-04T21:50:02.853Z,2.00
2023-01-04T21:52:50.881Z,2.70
2023-01-04T21:55:38.684Z,2.70
2023-01-04T21:58:29.151Z,3.80
2023-01-04T22:01:18.916Z,1.80
2023-01-04T22:04:08.553Z,2.80
2023-01-04T22:06:56.606Z,2.65
2023-01-04T22:09:44.581Z,2.60
2023-01-04T22:12:32.516Z,2.55
2023-01-04T22:15:20.348Z,2.15
2023-01-04T22:18:08.457Z,2.42
2023-01-04T22:21:07.974Z,2.53
2023-01-04T22:23:56.363Z,2.60
2023-01-04T22:26:47.137Z,2.50
2023-01-04T22:29:41.000Z,2.30
2023-01-04T22:32:35.618Z,1.88
2023-01-04T22:35:23.910Z,1.60
2023-01-04T22:38:13.353Z,1.25
2023-01-04T22:41:03.735Z,1.38
2023-01-04T22:43:57.533Z,1.27
2023-01-04T22:46:46.542Z,1.10
2023-01-04T22:49:36.464Z,1.30
2023-01-04T22:52:24.191Z,1.20
2023-01-04T22:55:13.489Z,0.98
2023-01-04T22:58:03.630Z,1.20
2023-01-04T23:00:52.780Z,1.73
2023-01-04T23:03:43.268Z,1.83
2023-01-04T23:06:32.735Z,1.70
2023-01-04T23:09:20.904Z,1.40
2023-01-04T23:12:10.343Z,1.70
2023-01-04T23:15:00.045Z,1.20
2023-01-04T23:17:47.756Z,1.20
2023-01-04T23:20:36.482Z,1.27
2023-01-04T23:23:24.453Z,1.10
2023-01-04T23:26:15.727Z,1.30
2023-01-04T23:29:05.065Z,1.10
2023-01-04T23:31:52.938Z,1.00
2023-01-04T23:34:41.127Z,1.17
2023-01-04T23:37:28.862Z,1.17
2023-01-04T23:40:16.836Z,1.00
2023-01-04T23:43:04.776Z,1.20
2023-01-04T23:45:54.224Z,1.02
2023-01-04T23:48:42.320Z,1.38
2023-01-04T23:51:30.086Z,1.13
2023-01-04T23:54:20.673Z,1.27
2023-01-04T23:57:08.697Z,1.52
2023-01-04T23:59:56.856Z,1.20
